Time;durP1;ratioP1;P1;durP2;ratioP2;P2;SDS_P1;SDS_P2;PMS_P1;PMS_P2;Temp;Humidity;BMP_temperature;BMP_pressure;BME280_temperature;BME280_humidity;BME280_pressure;Samples;Min_cycle;Max_cycle;Signal;HPM_P1;HPM_P2
2021/08/24 00:00:10;;;;;;;1.77;0.73;;;25.70;55.60;;;;;;5022291;28;20451;-68
2021/08/24 00:02:36;;;;;;;1.50;0.50;;;25.70;55.50;;;;;;5022941;28;20429;-69
2021/08/24 00:05:02;;;;;;;1.48;0.40;;;25.70;55.50;;;;;;5022465;28;20434;-66
2021/08/24 00:07:28;;;;;;;1.08;0.50;;;25.70;55.50;;;;;;5054773;28;20395;-69
2021/08/24 00:09:53;;;;;;;0.80;0.40;;;25.70;55.50;;;;;;5022278;28;20736;-68
2021/08/24 00:12:19;;;;;;;0.88;0.52;;;25.70;55.50;;;;;;5022912;28;20739;-67
2021/08/24 00:14:44;;;;;;;1.13;0.40;;;25.80;55.40;;;;;;5022458;28;20391;-67
2021/08/24 00:17:10;;;;;;;2.50;0.50;;;25.80;55.40;;;;;;5022875;28;20395;-69
2021/08/24 00:19:36;;;;;;;0.98;0.40;;;25.70;55.50;;;;;;5022275;28;20425;-68
2021/08/24 00:22:02;;;;;;;0.90;0.40;;;25.70;55.30;;;;;;5022557;28;21342;-68
2021/08/24 00:24:28;;;;;;;1.05;0.50;;;25.70;55.30;;;;;;5022445;28;20898;-68
2021/08/24 00:26:53;;;;;;;0.85;0.40;;;25.80;55.40;;;;;;5022077;28;20841;-68
2021/08/24 00:29:19;;;;;;;1.07;0.47;;;25.70;55.20;;;;;;5022606;28;20485;-69
2021/08/24 00:31:45;;;;;;;1.55;0.40;;;25.70;55.20;;;;;;5022282;28;20387;-65
2021/08/24 00:34:10;;;;;;;0.77;0.47;;;25.70;55.20;;;;;;5022089;28;20438;-69
2021/08/24 00:36:36;;;;;;;0.80;0.40;;;25.70;55.20;;;;;;5022287;28;20394;-68
2021/08/24 00:39:02;;;;;;;1.23;0.40;;;25.70;55.30;;;;;;5022419;28;20395;-70
2021/08/24 00:41:28;;;;;;;0.70;0.38;;;25.70;55.20;;;;;;5022246;28;20405;-67
2021/08/24 00:43:55;;;;;;;1.10;0.40;;;25.70;55.20;;;;;;5022384;28;20395;-68
2021/08/24 00:46:32;;;;;;;0.80;0.40;;;25.70;55.20;;;;;;5022015;28;20388;-67
2021/08/24 00:49:09;;;;;;;0.75;0.30;;;25.60;55.10;;;;;;5021589;28;20398;-66
2021/08/24 00:51:38;;;;;;;0.52;0.30;;;25.70;55.20;;;;;;5021258;28;20414;-68
2021/08/24 00:54:11;;;;;;;0.80;0.40;;;25.70;55.20;;;;;;5025973;28;20473;-69
2021/08/24 00:56:39;;;;;;;1.15;0.40;;;25.70;55.20;;;;;;5026149;28;20407;-69
2021/08/24 00:59:04;;;;;;;0.80;0.32;;;25.70;55.20;;;;;;5026091;28;20418;-66
2021/08/24 01:01:30;;;;;;;1.10;0.40;;;25.70;55.20;;;;;;5058073;28;20989;-69
2021/08/24 01:03:58;;;;;;;0.77;0.30;;;25.70;55.20;;;;;;5025751;28;21026;-66
2021/08/24 01:06:38;;;;;;;0.63;0.38;;;25.70;55.20;;;;;;5026256;28;20419;-69
2021/08/24 01:09:58;;;;;;;0.90;0.40;;;25.70;55.10;;;;;;5026104;28;20382;-63
2021/08/24 01:12:42;;;;;;;0.50;0.28;;;25.70;55.10;;;;;;5003343;28;20512;-69
2021/08/24 01:15:38;;;;;;;0.60;0.30;;;25.60;55.10;;;;;;5024091;28;20469;-68
2021/08/24 01:18:42;;;;;;;0.47;0.32;;;25.70;55.10;;;;;;5025368;28;21006;-69
2021/08/24 01:21:16;;;;;;;1.50;0.40;;;25.60;55.00;;;;;;5025594;28;20516;-68
2021/08/24 01:24:11;;;;;;;1.05;0.40;;;25.70;55.10;;;;;;5025859;28;20391;-69
2021/08/24 01:26:49;;;;;;;0.38;0.20;;;25.60;55.00;;;;;;5025415;28;20395;-69
2021/08/24 01:29:51;;;;;;;0.57;0.30;;;25.60;55.00;;;;;;5025705;28;20441;-68
2021/08/24 01:32:23;;;;;;;0.80;0.40;;;25.60;55.00;;;;;;5025505;28;20405;-68
2021/08/24 01:34:57;;;;;;;0.70;0.30;;;25.60;55.00;;;;;;5025707;28;20417;-65
2021/08/24 01:37:41;;;;;;;0.70;0.38;;;25.60;55.00;;;;;;5025409;28;20395;-67
2021/08/24 01:40:14;;;;;;;0.80;0.35;;;25.60;55.00;;;;;;5024702;28;20423;-68
2021/08/24 01:42:41;;;;;;;1.35;0.30;;;25.60;55.00;;;;;;5057156;28;20395;-64
2021/08/24 01:45:16;;;;;;;0.70;0.38;;;25.70;55.10;;;;;;5025581;28;20478;-70
2021/08/24 01:48:06;;;;;;;0.70;0.32;;;25.60;55.00;;;;;;5024914;28;20387;-69
2021/08/24 01:50:35;;;;;;;0.73;0.40;;;25.60;55.00;;;;;;5024488;28;20422;-65
2021/08/24 01:53:14;;;;;;;0.47;0.25;;;25.60;55.00;;;;;;5024926;28;20950;-68
2021/08/24 01:55:48;;;;;;;1.17;0.40;;;25.60;55.00;;;;;;5025068;28;20919;-68
2021/08/24 01:58:34;;;;;;;0.40;0.28;;;25.60;55.00;;;;;;5024874;28;20875;-69
2021/08/24 02:01:04;;;;;;;0.70;0.30;;;25.50;54.90;;;;;;5025103;28;20415;-68
2021/08/24 02:03:37;;;;;;;1.00;0.40;;;25.60;55.00;;;;;;5024053;28;20413;-65
2021/08/24 02:06:11;;;;;;;0.60;0.30;;;25.60;55.00;;;;;;5024296;28;20490;-70
2021/08/24 02:08:42;;;;;;;0.85;0.40;;;25.50;54.90;;;;;;5025001;28;20398;-68
2021/08/24 02:11:08;;;;;;;0.50;0.30;;;25.60;55.00;;;;;;5024734;28;20391;-68
2021/08/24 02:13:37;;;;;;;0.60;0.30;;;25.50;55.00;;;;;;5024727;28;20380;-66
2021/08/24 02:16:08;;;;;;;0.50;0.30;;;25.50;55.00;;;;;;5024502;28;20398;-69
2021/08/24 02:18:38;;;;;;;0.80;0.40;;;25.50;55.00;;;;;;5024709;28;20891;-65
2021/08/24 02:21:27;;;;;;;0.60;0.40;;;25.50;55.00;;;;;;5024797;28;20426;-69
2021/08/24 02:23:57;;;;;;;0.80;0.33;;;25.50;55.10;;;;;;5025281;28;20379;-68
2021/08/24 02:26:26;;;;;;;0.70;0.30;;;25.50;55.00;;;;;;5024477;28;20403;-66
2021/08/24 02:28:55;;;;;;;0.47;0.30;;;25.50;55.00;;;;;;5024903;28;20408;-69
2021/08/24 02:31:45;;;;;;;0.50;0.40;;;25.50;55.00;;;;;;5024711;28;20391;-69
2021/08/24 02:34:23;;;;;;;0.85;0.50;;;25.50;54.80;;;;;;5056104;28;20395;-68
2021/08/24 02:37:16;;;;;;;0.52;0.30;;;25.50;54.90;;;;;;5024555;28;20401;-69
2021/08/24 02:40:04;;;;;;;0.40;0.20;;;25.50;55.40;;;;;;5024275;28;20626;-65
2021/08/24 02:42:49;;;;;;;0.50;0.20;;;25.50;54.80;;;;;;5024267;28;20402;-65
2021/08/24 02:45:25;;;;;;;0.85;0.28;;;25.50;54.80;;;;;;5022715;28;20409;-70
2021/08/24 02:47:53;;;;;;;0.50;0.30;;;25.50;54.80;;;;;;5024212;28;20391;-68
2021/08/24 02:50:19;;;;;;;0.50;0.20;;;25.60;54.90;;;;;;5023589;28;20399;-67
2021/08/24 02:52:45;;;;;;;0.60;0.30;;;25.50;54.80;;;;;;5023743;28;20394;-69
2021/08/24 02:55:11;;;;;;;0.52;0.20;;;25.50;54.80;;;;;;5023938;28;20403;-67
2021/08/24 02:57:37;;;;;;;0.60;0.30;;;25.50;54.90;;;;;;5024127;28;21014;-67
2021/08/24 03:00:05;;;;;;;0.50;0.23;;;25.50;54.90;;;;;;5023459;28;20473;-66
2021/08/24 03:02:31;;;;;;;0.70;0.30;;;25.50;54.90;;;;;;5023928;28;20383;-68
2021/08/24 03:04:56;;;;;;;0.40;0.30;;;25.40;54.90;;;;;;5055955;28;20403;-68
2021/08/24 03:07:27;;;;;;;0.80;0.30;;;25.40;55.20;;;;;;5024010;28;20427;-68
2021/08/24 03:09:55;;;;;;;0.80;0.30;;;25.40;55.30;;;;;;5023793;28;21227;-69
2021/08/24 03:12:33;;;;;;;0.98;0.30;;;25.40;55.40;;;;;;5023312;28;20787;-69
2021/08/24 03:15:10;;;;;;;0.60;0.35;;;25.40;55.30;;;;;;5022491;28;20887;-68
2021/08/24 03:17:56;;;;;;;1.20;0.40;;;25.40;55.40;;;;;;5023775;28;20422;-70
2021/08/24 03:20:26;;;;;;;0.70;0.40;;;25.40;55.30;;;;;;5021303;28;20422;-69
2021/08/24 03:22:54;;;;;;;2.20;0.28;;;25.50;55.40;;;;;;5022871;28;20482;-68
2021/08/24 03:25:20;;;;;;;3.20;0.50;;;25.50;55.70;;;;;;5022961;28;20477;-69
2021/08/24 03:27:51;;;;;;;2.50;0.43;;;25.50;56.00;;;;;;5023136;28;20395;-70
2021/08/24 03:30:17;;;;;;;1.48;0.40;;;25.50;56.60;;;;;;5023272;28;20852;-69
2021/08/24 03:32:45;;;;;;;0.65;0.22;;;25.60;56.60;;;;;;5020712;28;21410;-64
2021/08/24 03:35:12;;;;;;;3.08;0.40;;;25.60;56.90;;;;;;5020606;28;20842;-65
2021/08/24 03:37:38;;;;;;;0.98;0.30;;;25.60;57.20;;;;;;5022572;28;20391;-69
2021/08/24 03:40:05;;;;;;;1.00;0.30;;;25.60;57.20;;;;;;5022513;28;20414;-67
2021/08/24 03:42:30;;;;;;;2.20;0.40;;;25.60;56.50;;;;;;5022975;28;20414;-69
2021/08/24 03:44:56;;;;;;;1.67;0.38;;;25.60;56.20;;;;;;5023325;28;20396;-69
2021/08/24 03:47:22;;;;;;;1.10;0.40;;;25.60;56.40;;;;;;5022540;28;20795;-66
2021/08/24 03:49:47;;;;;;;0.50;0.30;;;25.60;56.30;;;;;;5022903;28;20407;-69
2021/08/24 03:52:13;;;;;;;2.33;0.40;;;25.60;56.50;;;;;;5020938;28;20387;-68
2021/08/24 03:54:38;;;;;;;1.30;0.38;;;25.70;56.50;;;;;;5021736;28;20974;-67
2021/08/24 03:57:05;;;;;;;2.60;0.30;;;25.70;56.40;;;;;;5022281;28;20961;-69
2021/08/24 03:59:30;;;;;;;1.50;0.20;;;25.60;56.00;;;;;;5021504;28;20419;-66
2021/08/24 04:01:56;;;;;;;0.82;0.30;;;25.60;55.90;;;;;;5023125;28;20397;-66
2021/08/24 04:04:22;;;;;;;2.00;0.20;;;25.60;55.50;;;;;;5021925;28;20399;-66
2021/08/24 04:06:47;;;;;;;0.40;0.22;;;25.60;55.60;;;;;;5022541;28;20442;-69
2021/08/24 04:09:13;;;;;;;0.93;0.35;;;25.60;55.60;;;;;;5022819;28;20595;-68
2021/08/24 04:11:39;;;;;;;1.00;0.30;;;25.60;55.50;;;;;;5022825;28;20493;-68
2021/08/24 04:14:04;;;;;;;1.50;0.40;;;25.60;56.00;;;;;;5022339;28;20425;-63
2021/08/24 04:16:30;;;;;;;1.20;0.37;;;25.60;55.40;;;;;;5022813;28;20450;-70
2021/08/24 04:18:56;;;;;;;0.90;0.30;;;25.60;55.40;;;;;;5053848;28;20802;-68
2021/08/24 04:21:21;;;;;;;2.08;0.40;;;25.60;55.30;;;;;;5022538;28;20397;-68
2021/08/24 04:23:48;;;;;;;1.93;0.40;;;25.60;55.30;;;;;;5022193;28;20402;-68
2021/08/24 04:26:15;;;;;;;0.85;0.30;;;25.60;55.30;;;;;;5021905;28;20391;-69
2021/08/24 04:28:41;;;;;;;3.15;0.50;;;25.60;55.30;;;;;;5022944;28;20391;-69
2021/08/24 04:31:11;;;;;;;1.85;0.40;;;25.60;55.30;;;;;;5020891;28;20390;-68
2021/08/24 04:33:36;;;;;;;2.83;0.52;;;25.60;55.30;;;;;;5022359;28;20423;-64
2021/08/24 04:36:05;;;;;;;3.13;0.40;;;25.60;55.50;;;;;;5021989;28;20422;-69
2021/08/24 04:38:30;;;;;;;3.13;0.57;;;25.50;55.30;;;;;;5021784;28;20493;-69
2021/08/24 04:40:56;;;;;;;2.80;0.47;;;25.50;55.50;;;;;;5022280;28;20983;-63
2021/08/24 04:43:22;;;;;;;2.10;0.40;;;25.40;55.40;;;;;;5021382;28;20403;-69
2021/08/24 04:45:48;;;;;;;2.60;0.60;;;25.40;55.50;;;;;;5022028;28;20437;-65
2021/08/24 04:48:14;;;;;;;3.70;0.70;;;25.40;55.40;;;;;;5021903;28;20387;-66
2021/08/24 04:50:41;;;;;;;2.65;0.60;;;25.30;54.90;;;;;;5021878;28;20879;-69
2021/08/24 04:53:07;;;;;;;2.13;0.70;;;25.30;54.60;;;;;;5022707;28;20383;-68
2021/08/24 04:55:33;;;;;;;3.20;0.60;;;25.30;54.60;;;;;;5022177;28;20969;-68
2021/08/24 04:58:01;;;;;;;3.38;0.93;;;25.30;54.50;;;;;;5021065;28;20399;-64
2021/08/24 05:00:27;;;;;;;2.42;0.50;;;25.20;54.30;;;;;;5021357;28;20411;-68
2021/08/24 05:02:53;;;;;;;1.65;0.43;;;25.10;54.20;;;;;;5022387;28;20401;-68
2021/08/24 05:05:19;;;;;;;1.60;0.40;;;25.20;54.40;;;;;;5022132;28;20844;-67
2021/08/24 05:07:44;;;;;;;4.68;0.77;;;25.20;54.60;;;;;;5022338;28;20395;-69
2021/08/24 05:10:10;;;;;;;1.80;0.30;;;25.20;54.50;;;;;;5021681;28;20491;-65
2021/08/24 05:12:36;;;;;;;2.30;0.30;;;25.20;54.60;;;;;;5022152;28;20381;-68
2021/08/24 05:15:01;;;;;;;1.10;0.40;;;25.20;54.50;;;;;;5022082;28;20399;-68
2021/08/24 05:17:27;;;;;;;3.10;0.50;;;25.20;54.60;;;;;;5022045;28;20390;-66
2021/08/24 05:19:53;;;;;;;1.60;0.40;;;25.20;54.70;;;;;;5021767;28;20407;-69
2021/08/24 05:22:19;;;;;;;1.05;0.30;;;25.20;54.70;;;;;;5021719;28;20395;-66
2021/08/24 05:24:44;;;;;;;1.47;0.30;;;25.20;54.80;;;;;;5021915;28;20382;-68
2021/08/24 05:27:10;;;;;;;1.10;0.30;;;25.20;54.80;;;;;;5022191;28;20394;-68
2021/08/24 05:29:36;;;;;;;1.30;0.30;;;25.20;54.80;;;;;;5021912;28;20391;-68
2021/08/24 05:32:02;;;;;;;0.90;0.30;;;25.20;54.80;;;;;;5021909;28;20758;-65
2021/08/24 05:34:29;;;;;;;0.95;0.40;;;25.10;54.80;;;;;;5021671;28;20392;-69
2021/08/24 05:36:55;;;;;;;1.75;0.30;;;25.10;54.90;;;;;;5021819;28;20894;-67
2021/08/24 05:39:21;;;;;;;1.02;0.30;;;25.10;54.90;;;;;;5023966;28;20512;-64
2021/08/24 05:41:46;;;;;;;1.00;0.30;;;25.10;54.90;;;;;;5025471;28;20399;-66
2021/08/24 05:44:12;;;;;;;1.35;0.40;;;25.10;55.00;;;;;;5025431;28;20389;-69
2021/08/24 05:46:38;;;;;;;0.70;0.20;;;25.10;55.00;;;;;;5025270;28;20399;-67
2021/08/24 05:49:05;;;;;;;0.60;0.30;;;25.10;55.10;;;;;;5025313;28;20398;-68
2021/08/24 05:51:31;;;;;;;0.95;0.30;;;25.10;55.00;;;;;;5024986;28;20454;-70
2021/08/24 05:53:57;;;;;;;0.57;0.30;;;25.10;55.00;;;;;;5024796;28;20474;-69
2021/08/24 05:56:25;;;;;;;0.47;0.28;;;25.10;55.00;;;;;;5024731;28;20417;-68
2021/08/24 05:58:51;;;;;;;0.68;0.30;;;25.10;55.10;;;;;;5025383;28;20402;-68
2021/08/24 06:01:35;;;;;;;0.50;0.28;;;25.10;55.20;;;;;;5025009;28;21180;-70
2021/08/24 06:04:01;;;;;;;0.70;0.30;;;25.10;55.10;;;;;;5025042;28;20395;-69
2021/08/24 06:06:30;;;;;;;0.70;0.28;;;25.10;55.10;;;;;;5024601;28;20415;-67
2021/08/24 06:08:57;;;;;;;0.67;0.23;;;25.00;55.10;;;;;;5024866;28;20391;-68
2021/08/24 06:11:29;;;;;;;0.57;0.30;;;25.00;55.10;;;;;;5023550;28;20407;-67
2021/08/24 06:13:57;;;;;;;0.70;0.22;;;25.00;55.10;;;;;;5023264;28;20387;-63
2021/08/24 06:16:23;;;;;;;1.10;0.30;;;25.00;55.10;;;;;;5055961;28;21362;-67
2021/08/24 06:18:49;;;;;;;0.70;0.20;;;25.00;55.10;;;;;;5024572;28;20403;-66
2021/08/24 06:21:16;;;;;;;0.70;0.20;;;25.00;55.10;;;;;;5024452;28;20490;-64
2021/08/24 06:23:42;;;;;;;0.60;0.30;;;25.00;55.10;;;;;;5024788;28;20388;-68
2021/08/24 06:26:08;;;;;;;0.50;0.30;;;25.00;55.10;;;;;;5024262;28;20887;-65
2021/08/24 06:28:34;;;;;;;1.30;0.40;;;25.00;55.10;;;;;;5024341;28;20391;-67
2021/08/24 06:31:00;;;;;;;0.60;0.30;;;25.00;55.10;;;;;;5024642;28;20403;-68
2021/08/24 06:33:29;;;;;;;0.30;0.20;;;25.00;55.00;;;;;;5024563;28;20403;-65
2021/08/24 06:35:55;;;;;;;0.50;0.20;;;25.00;55.10;;;;;;5024595;28;20469;-68
2021/08/24 06:38:22;;;;;;;0.50;0.30;;;25.00;55.10;;;;;;5022776;28;20440;-68
2021/08/24 06:40:47;;;;;;;1.00;0.38;;;25.00;55.10;;;;;;5024271;28;20418;-65
2021/08/24 06:43:15;;;;;;;0.80;0.32;;;25.00;55.10;;;;;;5024472;28;20391;-68
2021/08/24 06:45:41;;;;;;;1.00;0.40;;;25.00;55.10;;;;;;5024295;28;20402;-68
2021/08/24 06:48:06;;;;;;;0.82;0.30;;;25.00;55.10;;;;;;5024297;28;20406;-65
2021/08/24 06:50:33;;;;;;;1.00;0.40;;;25.00;55.10;;;;;;5023244;28;20395;-68
2021/08/24 06:52:59;;;;;;;0.90;0.40;;;25.00;55.10;;;;;;5055788;28;20391;-68
2021/08/24 06:55:25;;;;;;;0.60;0.40;;;25.00;55.10;;;;;;5024456;28;20866;-70
2021/08/24 06:57:52;;;;;;;0.63;0.40;;;24.90;55.10;;;;;;5024165;28;20402;-67
2021/08/24 07:00:21;;;;;;;0.50;0.30;;;25.00;55.20;;;;;;5023655;28;20426;-64
2021/08/24 07:02:47;;;;;;;0.80;0.35;;;25.00;55.10;;;;;;5024064;28;20709;-67
2021/08/24 07:05:15;;;;;;;0.77;0.33;;;25.00;55.10;;;;;;5023536;28;20962;-66
2021/08/24 07:07:41;;;;;;;0.50;0.30;;;25.00;55.10;;;;;;5023167;28;20387;-69
2021/08/24 07:10:09;;;;;;;0.68;0.30;;;25.00;55.00;;;;;;5024290;28;20445;-69
2021/08/24 07:12:35;;;;;;;0.80;0.30;;;25.00;54.90;;;;;;5022811;28;20425;-64
2021/08/24 07:15:01;;;;;;;0.60;0.30;;;25.00;55.00;;;;;;5023449;28;20494;-65
2021/08/24 07:17:26;;;;;;;0.60;0.30;;;25.00;55.10;;;;;;5023897;28;20482;-70
2021/08/24 07:19:53;;;;;;;0.50;0.30;;;25.00;54.90;;;;;;5023278;28;20913;-68
2021/08/24 07:22:19;;;;;;;0.90;0.35;;;25.00;55.00;;;;;;5023176;28;20383;-63
2021/08/24 07:24:45;;;;;;;1.20;0.40;;;25.00;55.00;;;;;;5023638;28;20384;-69
2021/08/24 07:27:11;;;;;;;0.50;0.30;;;25.00;54.90;;;;;;5023685;28;20867;-68
2021/08/24 07:29:37;;;;;;;0.63;0.30;;;25.00;54.90;;;;;;5023822;28;20877;-68
2021/08/24 07:32:04;;;;;;;0.67;0.40;;;25.00;55.00;;;;;;5020485;28;20455;-68
2021/08/24 07:34:29;;;;;;;0.67;0.30;;;25.00;55.00;;;;;;5023074;28;20525;-68
2021/08/24 07:36:55;;;;;;;0.65;0.30;;;24.90;54.90;;;;;;5023310;28;20784;-68
2021/08/24 07:39:21;;;;;;;0.60;0.30;;;24.90;54.90;;;;;;5023512;28;20384;-69
2021/08/24 07:41:47;;;;;;;0.80;0.40;;;25.00;55.00;;;;;;5023139;28;20399;-63
2021/08/24 07:44:12;;;;;;;0.60;0.30;;;24.90;55.20;;;;;;5023116;28;20879;-65
2021/08/24 07:46:38;;;;;;;1.10;0.40;;;24.90;54.90;;;;;;5021912;28;20433;-70
2021/08/24 07:49:04;;;;;;;0.90;0.40;;;24.90;54.90;;;;;;5021414;28;20894;-68
2021/08/24 07:51:30;;;;;;;1.00;0.40;;;24.90;55.10;;;;;;5022851;28;20399;-68
2021/08/24 07:53:56;;;;;;;1.10;0.32;;;24.90;54.90;;;;;;5022948;28;20386;-69
2021/08/24 07:56:22;;;;;;;0.70;0.40;;;24.90;54.90;;;;;;5022506;28;20387;-68
2021/08/24 07:58:49;;;;;;;0.80;0.40;;;24.90;54.90;;;;;;5022839;28;20509;-67
2021/08/24 08:01:15;;;;;;;0.60;0.30;;;24.90;55.00;;;;;;5022139;28;20773;-67
2021/08/24 08:03:41;;;;;;;0.75;0.30;;;24.90;55.00;;;;;;5023010;28;20886;-69
2021/08/24 08:06:06;;;;;;;0.70;0.40;;;24.90;54.90;;;;;;5022701;28;20402;-68
2021/08/24 08:08:32;;;;;;;1.00;0.33;;;25.00;54.90;;;;;;5020797;28;20387;-68
2021/08/24 08:10:58;;;;;;;0.60;0.30;;;24.90;54.90;;;;;;5022650;28;20401;-66
2021/08/24 08:13:25;;;;;;;0.68;0.30;;;24.90;54.90;;;;;;5022872;28;20752;-68
2021/08/24 08:15:51;;;;;;;0.60;0.30;;;24.90;54.80;;;;;;5022645;28;20394;-68
2021/08/24 08:18:17;;;;;;;0.80;0.40;;;24.90;54.90;;;;;;5022337;28;20453;-69
2021/08/24 08:20:44;;;;;;;0.60;0.28;;;24.90;54.80;;;;;;5022336;28;20452;-69
2021/08/24 08:23:15;;;;;;;0.70;0.40;;;24.90;54.80;;;;;;5022211;28;22786;-68
2021/08/24 08:25:41;;;;;;;0.68;0.43;;;24.90;54.80;;;;;;5022546;28;20402;-65
2021/08/24 08:28:07;;;;;;;0.80;0.30;;;24.90;54.80;;;;;;5022389;28;20383;-68
2021/08/24 08:30:35;;;;;;;0.57;0.30;;;24.90;54.90;;;;;;5020567;28;20402;-69
2021/08/24 08:33:04;;;;;;;0.67;0.40;;;24.90;54.70;;;;;;5020464;28;20391;-64
2021/08/24 08:35:31;;;;;;;1.00;0.52;;;24.90;54.70;;;;;;5022245;28;20441;-67
2021/08/24 08:37:57;;;;;;;0.90;0.40;;;24.90;54.80;;;;;;5021846;28;20399;-64
2021/08/24 08:40:47;;;;;;;0.70;0.30;;;24.90;54.80;;;;;;5021777;28;20458;-66
2021/08/24 08:43:39;;;;;;;0.65;0.32;;;24.80;54.70;;;;;;5022229;28;20383;-65
2021/08/24 08:46:36;;;;;;;1.00;0.50;;;24.90;54.80;;;;;;5022226;28;20399;-68
2021/08/24 08:49:14;;;;;;;0.70;0.40;;;24.90;54.80;;;;;;5022234;28;20806;-68
2021/08/24 08:51:42;;;;;;;0.80;0.30;;;24.90;54.70;;;;;;5022661;28;20426;-66
2021/08/24 08:54:43;;;;;;;0.82;0.40;;;24.90;54.80;;;;;;5022210;28;20418;-69
2021/08/24 08:57:14;;;;;;;0.73;0.47;;;24.90;54.80;;;;;;5030674;28;20406;-68
2021/08/24 08:59:50;;;;;;;0.93;0.40;;;24.90;54.80;;;;;;5022241;28;20415;-68
2021/08/24 09:02:34;;;;;;;0.70;0.40;;;24.80;54.80;;;;;;5022197;28;20401;-67
2021/08/24 09:05:03;;;;;;;0.70;0.40;;;24.90;54.80;;;;;;5021733;28;20799;-69
2021/08/24 09:07:43;;;;;;;1.00;0.57;;;24.90;54.80;;;;;;5020846;28;20386;-68
2021/08/24 09:10:17;;;;;;;1.10;0.50;;;24.90;55.10;;;;;;5020927;28;20438;-66
2021/08/24 09:12:50;;;;;;;0.77;0.40;;;24.90;55.10;;;;;;5021560;28;20979;-69
2021/08/24 09:15:20;;;;;;;0.75;0.40;;;25.00;54.70;;;;;;5024619;28;20423;-69
2021/08/24 09:17:48;;;;;;;0.85;0.40;;;25.00;54.70;;;;;;5025962;28;20399;-68
2021/08/24 09:20:30;;;;;;;0.57;0.40;;;25.00;54.70;;;;;;5025966;28;20435;-69
2021/08/24 09:22:57;;;;;;;1.10;0.40;;;25.10;54.70;;;;;;5024103;28;20512;-68
2021/08/24 09:25:42;;;;;;;0.88;0.40;;;25.10;54.70;;;;;;5025649;28;20478;-69
2021/08/24 09:28:21;;;;;;;1.33;0.50;;;25.10;54.70;;;;;;5017472;28;21313;-69
2021/08/24 09:30:47;;;;;;;0.80;0.30;;;25.10;54.70;;;;;;5025277;28;20486;-69
2021/08/24 09:33:14;;;;;;;0.60;0.30;;;25.10;54.60;;;;;;5057724;28;20533;-65
2021/08/24 09:35:43;;;;;;;0.50;0.30;;;25.10;54.60;;;;;;5025491;28;20398;-67
2021/08/24 09:38:18;;;;;;;0.70;0.40;;;25.10;54.50;;;;;;5025389;28;20391;-69
2021/08/24 09:40:47;;;;;;;1.30;0.40;;;25.10;54.50;;;;;;5025377;28;20498;-68
2021/08/24 09:43:24;;;;;;;0.90;0.40;;;25.10;54.60;;;;;;5025458;28;20475;-65
2021/08/24 09:46:30;;;;;;;0.70;0.40;;;25.10;54.60;;;;;;5057029;28;20907;-68
2021/08/24 09:49:04;;;;;;;0.80;0.40;;;25.10;54.60;;;;;;5025203;28;20489;-69
2021/08/24 09:51:39;;;;;;;0.90;0.40;;;25.00;54.60;;;;;;5025432;28;20902;-67
2021/08/24 09:54:27;;;;;;;0.90;0.50;;;25.10;54.60;;;;;;5024790;28;20603;-69
2021/08/24 09:56:57;;;;;;;1.15;0.40;;;25.10;54.60;;;;;;5024601;28;20430;-68
2021/08/24 09:59:30;;;;;;;0.90;0.47;;;25.10;54.60;;;;;;5025011;28;20448;-68
2021/08/24 10:01:57;;;;;;;0.90;0.40;;;25.00;54.60;;;;;;5024899;28;20408;-69
2021/08/24 10:04:22;;;;;;;1.00;0.40;;;25.10;54.70;;;;;;5024665;28;20395;-65
2021/08/24 10:06:53;;;;;;;0.80;0.40;;;25.10;54.60;;;;;;5024883;28;20469;-70
2021/08/24 10:09:34;;;;;;;0.70;0.40;;;25.10;54.60;;;;;;5025259;28;20387;-67
2021/08/24 10:12:28;;;;;;;1.00;0.40;;;25.10;54.60;;;;;;5024858;28;20808;-65
2021/08/24 10:14:55;;;;;;;0.90;0.50;;;25.10;54.60;;;;;;5024472;28;20490;-69
2021/08/24 10:17:34;;;;;;;1.00;0.50;;;25.10;54.60;;;;;;5024671;28;20390;-69
2021/08/24 10:20:20;;;;;;;1.03;0.50;;;25.10;55.20;;;;;;5024666;28;20432;-65
2021/08/24 10:22:50;;;;;;;0.70;0.30;;;25.10;54.50;;;;;;5024397;28;20394;-69
2021/08/24 10:25:22;;;;;;;0.70;0.40;;;25.10;54.50;;;;;;5024258;28;20449;-69
2021/08/24 10:28:22;;;;;;;1.20;0.40;;;25.10;54.50;;;;;;5024460;28;20923;-68
2021/08/24 10:30:51;;;;;;;1.60;0.45;;;25.10;54.50;;;;;;5024173;28;20434;-69
2021/08/24 10:33:40;;;;;;;0.70;0.40;;;25.10;54.50;;;;;;5024290;28;20474;-68
2021/08/24 10:36:31;;;;;;;0.93;0.40;;;25.10;54.60;;;;;;5024383;28;20502;-70
2021/08/24 10:39:02;;;;;;;0.70;0.40;;;25.10;54.50;;;;;;5039666;28;20431;-68
2021/08/24 10:41:30;;;;;;;0.90;0.40;;;25.10;54.50;;;;;;5022774;28;20481;-70
2021/08/24 10:44:06;;;;;;;0.73;0.40;;;25.10;54.50;;;;;;5024302;28;20390;-68
2021/08/24 10:46:31;;;;;;;0.77;0.45;;;25.10;54.50;;;;;;5024060;28;20446;-68
2021/08/24 10:48:57;;;;;;;0.93;0.50;;;25.10;54.50;;;;;;5024151;28;20395;-68
2021/08/24 10:51:43;;;;;;;0.77;0.40;;;25.10;54.50;;;;;;5024273;28;20450;-69
2021/08/24 10:54:21;;;;;;;0.85;0.47;;;25.10;54.60;;;;;;5024064;28;20383;-69
2021/08/24 10:57:34;;;;;;;0.73;0.40;;;25.10;54.60;;;;;;5023576;28;20899;-70
2021/08/24 11:00:24;;;;;;;0.95;0.50;;;25.10;54.50;;;;;;5016535;28;20919;-66
2021/08/24 11:03:20;;;;;;;0.80;0.40;;;25.10;54.50;;;;;;5048684;28;20403;-66
2021/08/24 11:05:55;;;;;;;0.80;0.40;;;25.10;54.60;;;;;;5024137;28;20399;-65
2021/08/24 11:08:53;;;;;;;0.80;0.40;;;25.10;54.60;;;;;;5023915;28;20389;-69
2021/08/24 11:11:38;;;;;;;0.63;0.32;;;25.10;54.50;;;;;;5023615;28;20386;-69
2021/08/24 11:14:42;;;;;;;1.40;0.45;;;25.10;54.60;;;;;;5023525;28;20899;-68
2021/08/24 11:17:19;;;;;;;0.90;0.50;;;25.10;54.50;;;;;;5019670;28;20395;-69
2021/08/24 11:19:54;;;;;;;0.80;0.40;;;25.10;54.50;;;;;;5023716;28;20887;-69
2021/08/24 11:22:44;;;;;;;0.68;0.40;;;25.10;54.50;;;;;;5023324;28;20906;-65
2021/08/24 11:25:25;;;;;;;0.77;0.40;;;25.10;54.50;;;;;;5021990;28;20422;-68
2021/08/24 11:28:08;;;;;;;1.00;0.50;;;25.10;54.50;;;;;;5023335;28;20911;-66
2021/08/24 11:30:45;;;;;;;0.70;0.40;;;25.10;54.50;;;;;;5023020;28;20482;-69
2021/08/24 11:33:29;;;;;;;0.80;0.40;;;25.10;54.50;;;;;;5023452;28;20756;-69
2021/08/24 11:36:01;;;;;;;0.82;0.45;;;25.10;54.50;;;;;;5022441;28;20979;-66
2021/08/24 11:38:32;;;;;;;0.73;0.40;;;25.10;54.50;;;;;;5022865;28;20398;-69
2021/08/24 11:41:04;;;;;;;0.98;0.50;;;25.10;54.50;;;;;;5022907;28;20449;-67
2021/08/24 11:43:50;;;;;;;0.85;0.43;;;25.10;54.50;;;;;;5021428;28;20391;-70
2021/08/24 11:46:24;;;;;;;0.88;0.43;;;25.10;54.40;;;;;;5051080;28;20430;-69
2021/08/24 11:49:01;;;;;;;0.80;0.40;;;25.10;54.50;;;;;;5018670;28;20407;-64
2021/08/24 11:51:30;;;;;;;0.80;0.45;;;25.10;54.40;;;;;;5019723;28;20395;-70
2021/08/24 11:53:59;;;;;;;0.88;0.40;;;25.10;54.50;;;;;;5019958;28;20395;-66
2021/08/24 11:56:53;;;;;;;0.98;0.47;;;25.10;54.40;;;;;;5021461;28;20387;-69
2021/08/24 11:59:30;;;;;;;0.90;0.47;;;25.10;54.40;;;;;;5022863;28;20468;-68
2021/08/24 12:01:55;;;;;;;0.80;0.50;;;25.10;54.40;;;;;;5022881;28;20476;-69
2021/08/24 12:04:25;;;;;;;0.88;0.50;;;25.10;54.40;;;;;;5022867;28;20478;-67
2021/08/24 12:07:00;;;;;;;1.10;0.50;;;25.10;54.40;;;;;;5022194;28;20430;-68
2021/08/24 12:09:51;;;;;;;0.77;0.47;;;25.10;54.40;;;;;;5022773;28;20383;-69
2021/08/24 12:12:29;;;;;;;4.20;0.50;;;25.10;54.40;;;;;;5022782;28;20534;-66
2021/08/24 12:14:59;;;;;;;1.70;0.65;;;25.10;54.30;;;;;;5022559;28;20403;-69
2021/08/24 12:17:31;;;;;;;1.35;0.60;;;25.20;54.50;;;;;;5022573;28;20398;-69
2021/08/24 12:20:28;;;;;;;1.67;0.60;;;25.20;54.50;;;;;;5022462;28;20419;-68
2021/08/24 12:22:58;;;;;;;3.33;0.82;;;25.10;54.50;;;;;;5022293;28;20402;-69
2021/08/24 12:25:42;;;;;;;6.40;0.75;;;25.10;54.50;;;;;;5022423;28;20402;-69
2021/08/24 12:28:36;;;;;;;4.55;0.60;;;25.10;54.40;;;;;;5022249;28;20403;-69
2021/08/24 12:31:04;;;;;;;2.83;0.70;;;25.20;54.30;;;;;;5019813;28;21309;-66
2021/08/24 12:33:45;;;;;;;6.10;0.93;;;25.20;54.50;;;;;;5022558;28;20399;-69
2021/08/24 12:36:17;;;;;;;4.55;0.60;;;25.20;54.40;;;;;;5022520;28;20445;-68
2021/08/24 12:38:47;;;;;;;5.07;0.70;;;25.20;54.40;;;;;;5022033;28;20570;-65
2021/08/24 12:41:31;;;;;;;4.00;0.60;;;25.20;54.40;;;;;;5022374;28;20419;-68
2021/08/24 12:44:24;;;;;;;4.15;0.60;;;25.30;54.40;;;;;;5022407;28;20382;-69
2021/08/24 12:47:14;;;;;;;4.25;0.60;;;25.20;54.30;;;;;;5022232;28;20399;-68
2021/08/24 12:49:40;;;;;;;6.50;1.00;;;25.30;54.40;;;;;;5017570;28;21384;-65
2021/08/24 12:52:14;;;;;;;6.63;0.93;;;25.20;54.40;;;;;;5026338;28;20405;-69
2021/08/24 12:54:49;;;;;;;4.00;0.75;;;25.20;54.40;;;;;;5024340;28;20938;-67
2021/08/24 12:57:25;;;;;;;4.38;0.70;;;25.20;54.40;;;;;;5026492;28;20395;-70
2021/08/24 12:59:52;;;;;;;2.88;0.80;;;25.20;54.40;;;;;;5026219;28;20419;-69
2021/08/24 13:02:33;;;;;;;1.85;0.60;;;25.20;54.40;;;;;;5026049;28;20478;-67
2021/08/24 13:05:15;;;;;;;3.72;0.60;;;25.10;54.30;;;;;;5025731;28;20894;-67
2021/08/24 13:07:48;;;;;;;3.25;0.70;;;25.20;54.30;;;;;;5026036;28;20481;-69
2021/08/24 13:10:26;;;;;;;4.82;0.70;;;25.10;54.30;;;;;;5058049;28;20406;-70
2021/08/24 13:12:55;;;;;;;1.35;0.50;;;25.20;54.40;;;;;;5057244;28;20894;-68